In Rescue
 
Open Full Screen Window  High Contrast Mode
Wind Gusting 00 knots
08
November 29, 2022 8:37 AM EST
Weather Information
Wind Direction
  140 °
Wind Speed
  08 kt (9 mph)
Wind Gust
  00 kt (0 mph)
Altimeter
30.00 in
Visibility
10 SM
Temperature
04° C
39° F
Dewpoint
01° C
34° F
Humidity
81%
Sky Condition
Overcast @ 3,600 ft
VFR

METAR KHYX 291337Z AUTO 14008KT 10SM OVC036 04/01 A3000 RMK AO2 T00430008

FAA Disclaimer: The data displayed is for advisory purposes only and is not to be used for flight planning or operations.